sensor_id;sensor_type;location;lat;lon;timestamp;P1;durP1;ratioP1;P2;durP2;ratioP2
545;SDS011;259;53.304;9.816;2022-12-07T00:01:32;2.80;;;2.60;;
545;SDS011;259;53.304;9.816;2022-12-07T00:03:59;2.77;;;2.57;;
545;SDS011;259;53.304;9.816;2022-12-07T00:06:34;2.83;;;2.63;;
545;SDS011;259;53.304;9.816;2022-12-07T00:09:01;2.97;;;2.67;;
545;SDS011;259;53.304;9.816;2022-12-07T00:11:29;3.20;;;3.00;;
545;SDS011;259;53.304;9.816;2022-12-07T00:13:55;3.43;;;3.13;;
545;SDS011;259;53.304;9.816;2022-12-07T00:16:23;3.20;;;3.00;;
545;SDS011;259;53.304;9.816;2022-12-07T00:18:51;2.80;;;2.60;;
545;SDS011;259;53.304;9.816;2022-12-07T00:21:18;2.60;;;2.40;;
545;SDS011;259;53.304;9.816;2022-12-07T00:23:45;3.27;;;2.97;;
545;SDS011;259;53.304;9.816;2022-12-07T00:26:19;2.63;;;2.43;;
545;SDS011;259;53.304;9.816;2022-12-07T00:28:47;2.67;;;2.50;;
545;SDS011;259;53.304;9.816;2022-12-07T00:31:14;3.40;;;3.10;;
545;SDS011;259;53.304;9.816;2022-12-07T00:33:42;3.20;;;3.00;;
545;SDS011;259;53.304;9.816;2022-12-07T00:36:09;3.10;;;2.90;;
545;SDS011;259;53.304;9.816;2022-12-07T00:38:36;2.83;;;2.63;;
545;SDS011;259;53.304;9.816;2022-12-07T00:41:13;3.07;;;2.87;;
545;SDS011;259;53.304;9.816;2022-12-07T00:43:42;2.73;;;2.53;;
545;SDS011;259;53.304;9.816;2022-12-07T00:46:09;3.43;;;3.13;;
545;SDS011;259;53.304;9.816;2022-12-07T00:48:35;3.50;;;3.20;;
545;SDS011;259;53.304;9.816;2022-12-07T00:51:00;3.13;;;2.90;;
545;SDS011;259;53.304;9.816;2022-12-07T00:53:27;2.97;;;2.73;;
545;SDS011;259;53.304;9.816;2022-12-07T00:55:53;3.17;;;2.83;;
545;SDS011;259;53.304;9.816;2022-12-07T00:58:19;3.37;;;3.07;;
545;SDS011;259;53.304;9.816;2022-12-07T01:00:44;2.80;;;2.60;;
545;SDS011;259;53.304;9.816;2022-12-07T01:03:11;3.23;;;3.00;;
545;SDS011;259;53.304;9.816;2022-12-07T01:05:38;2.83;;;2.63;;
545;SDS011;259;53.304;9.816;2022-12-07T01:08:05;3.83;;;3.07;;
545;SDS011;259;53.304;9.816;2022-12-07T01:10:30;2.83;;;2.57;;
545;SDS011;259;53.304;9.816;2022-12-07T01:12:57;2.70;;;2.17;;
545;SDS011;259;53.304;9.816;2022-12-07T01:15:23;2.60;;;2.40;;
545;SDS011;259;53.304;9.816;2022-12-07T01:17:49;3.03;;;2.83;;
545;SDS011;259;53.304;9.816;2022-12-07T01:20:15;3.13;;;2.93;;
545;SDS011;259;53.304;9.816;2022-12-07T01:22:41;2.90;;;2.70;;
545;SDS011;259;53.304;9.816;2022-12-07T01:25:07;3.00;;;2.80;;
545;SDS011;259;53.304;9.816;2022-12-07T01:27:34;2.23;;;2.13;;
545;SDS011;259;53.304;9.816;2022-12-07T01:30:00;2.60;;;2.40;;
545;SDS011;259;53.304;9.816;2022-12-07T01:32:26;2.50;;;2.30;;
545;SDS011;259;53.304;9.816;2022-12-07T01:34:52;2.73;;;2.53;;
545;SDS011;259;53.304;9.816;2022-12-07T01:37:18;2.63;;;2.43;;
545;SDS011;259;53.304;9.816;2022-12-07T01:39:43;3.10;;;2.90;;
545;SDS011;259;53.304;9.816;2022-12-07T01:42:10;2.07;;;1.97;;
545;SDS011;259;53.304;9.816;2022-12-07T01:47:56;2.57;;;2.37;;
545;SDS011;259;53.304;9.816;2022-12-07T01:50:24;4.07;;;2.90;;
545;SDS011;259;53.304;9.816;2022-12-07T01:52:52;2.57;;;2.37;;
545;SDS011;259;53.304;9.816;2022-12-07T01:55:19;2.40;;;2.20;;
545;SDS011;259;53.304;9.816;2022-12-07T01:57:47;2.50;;;2.40;;
545;SDS011;259;53.304;9.816;2022-12-07T02:00:16;2.77;;;2.57;;
545;SDS011;259;53.304;9.816;2022-12-07T02:02:53;2.70;;;2.50;;
545;SDS011;259;53.304;9.816;2022-12-07T02:05:34;2.60;;;2.40;;
545;SDS011;259;53.304;9.816;2022-12-07T02:08:02;2.83;;;2.63;;
545;SDS011;259;53.304;9.816;2022-12-07T02:10:29;2.70;;;2.50;;
545;SDS011;259;53.304;9.816;2022-12-07T02:12:57;2.17;;;2.07;;
545;SDS011;259;53.304;9.816;2022-12-07T02:21:39;2.13;;;2.03;;
545;SDS011;259;53.304;9.816;2022-12-07T02:24:14;2.27;;;2.17;;
545;SDS011;259;53.304;9.816;2022-12-07T02:30:00;2.10;;;2.00;;
545;SDS011;259;53.304;9.816;2022-12-07T02:35:41;1.73;;;1.60;;
545;SDS011;259;53.304;9.816;2022-12-07T02:38:40;1.83;;;1.73;;
545;SDS011;259;53.304;9.816;2022-12-07T02:41:20;2.23;;;1.80;;
545;SDS011;259;53.304;9.816;2022-12-07T02:43:51;2.37;;;2.17;;
545;SDS011;259;53.304;9.816;2022-12-07T02:46:28;1.87;;;1.77;;
545;SDS011;259;53.304;9.816;2022-12-07T02:48:58;1.83;;;1.73;;
545;SDS011;259;53.304;9.816;2022-12-07T02:51:25;1.97;;;1.87;;
545;SDS011;259;53.304;9.816;2022-12-07T02:53:51;2.80;;;1.80;;
545;SDS011;259;53.304;9.816;2022-12-07T03:15:34;1.57;;;1.47;;
545;SDS011;259;53.304;9.816;2022-12-07T03:18:24;1.60;;;1.50;;
545;SDS011;259;53.304;9.816;2022-12-07T03:20:53;1.57;;;1.40;;
545;SDS011;259;53.304;9.816;2022-12-07T03:23:23;1.80;;;1.70;;
545;SDS011;259;53.304;9.816;2022-12-07T03:25:52;1.87;;;1.77;;
545;SDS011;259;53.304;9.816;2022-12-07T03:28:22;1.80;;;1.70;;
545;SDS011;259;53.304;9.816;2022-12-07T03:30:52;1.67;;;1.57;;
545;SDS011;259;53.304;9.816;2022-12-07T03:33:29;1.53;;;1.43;;
545;SDS011;259;53.304;9.816;2022-12-07T03:36:06;1.47;;;1.37;;
545;SDS011;259;53.304;9.816;2022-12-07T03:38:49;1.67;;;1.57;;
545;SDS011;259;53.304;9.816;2022-12-07T03:41:22;1.60;;;1.50;;
545;SDS011;259;53.304;9.816;2022-12-07T03:43:51;1.37;;;1.27;;
545;SDS011;259;53.304;9.816;2022-12-07T03:46:34;1.50;;;1.40;;
545;SDS011;259;53.304;9.816;2022-12-07T03:52:08;1.47;;;1.20;;
545;SDS011;259;53.304;9.816;2022-12-07T03:57:16;1.37;;;1.27;;
545;SDS011;259;53.304;9.816;2022-12-07T03:59:43;1.43;;;1.33;;
545;SDS011;259;53.304;9.816;2022-12-07T04:02:11;1.30;;;1.20;;
545;SDS011;259;53.304;9.816;2022-12-07T04:04:38;1.30;;;1.20;;
545;SDS011;259;53.304;9.816;2022-12-07T04:07:04;1.40;;;1.30;;
545;SDS011;259;53.304;9.816;2022-12-07T04:09:30;1.60;;;1.50;;
545;SDS011;259;53.304;9.816;2022-12-07T04:11:55;1.20;;;1.10;;
545;SDS011;259;53.304;9.816;2022-12-07T04:14:21;1.20;;;1.10;;
545;SDS011;259;53.304;9.816;2022-12-07T04:16:56;1.43;;;1.33;;
545;SDS011;259;53.304;9.816;2022-12-07T04:19:27;1.10;;;1.00;;
545;SDS011;259;53.304;9.816;2022-12-07T04:21:54;1.57;;;1.00;;
545;SDS011;259;53.304;9.816;2022-12-07T04:24:21;1.10;;;0.70;;
545;SDS011;259;53.304;9.816;2022-12-07T04:26:47;1.20;;;1.00;;
545;SDS011;259;53.304;9.816;2022-12-07T04:29:13;1.10;;;1.00;;
545;SDS011;259;53.304;9.816;2022-12-07T04:31:39;1.57;;;1.47;;
545;SDS011;259;53.304;9.816;2022-12-07T04:34:05;0.83;;;0.83;;
545;SDS011;259;53.304;9.816;2022-12-07T04:36:32;1.00;;;1.00;;
545;SDS011;259;53.304;9.816;2022-12-07T04:38:58;0.80;;;0.77;;
545;SDS011;259;53.304;9.816;2022-12-07T04:41:24;1.00;;;1.00;;
545;SDS011;259;53.304;9.816;2022-12-07T04:43:56;2.70;;;1.00;;
545;SDS011;259;53.304;9.816;2022-12-07T04:46:24;1.40;;;1.10;;
545;SDS011;259;53.304;9.816;2022-12-07T04:48:51;1.10;;;1.00;;
545;SDS011;259;53.304;9.816;2022-12-07T04:51:21;0.93;;;0.93;;
545;SDS011;259;53.304;9.816;2022-12-07T04:53:49;0.80;;;0.80;;
545;SDS011;259;53.304;9.816;2022-12-07T04:56:15;1.03;;;0.80;;
545;SDS011;259;53.304;9.816;2022-12-07T04:58:42;0.70;;;0.70;;
545;SDS011;259;53.304;9.816;2022-12-07T05:01:08;1.13;;;1.03;;
545;SDS011;259;53.304;9.816;2022-12-07T05:03:35;1.00;;;1.00;;
545;SDS011;259;53.304;9.816;2022-12-07T05:06:01;0.70;;;0.60;;
545;SDS011;259;53.304;9.816;2022-12-07T05:08:27;0.93;;;0.93;;
545;SDS011;259;53.304;9.816;2022-12-07T05:10:52;1.30;;;1.20;;
545;SDS011;259;53.304;9.816;2022-12-07T05:13:18;2.20;;;0.70;;
545;SDS011;259;53.304;9.816;2022-12-07T05:15:43;0.80;;;0.80;;
545;SDS011;259;53.304;9.816;2022-12-07T05:18:09;0.70;;;0.60;;
545;SDS011;259;53.304;9.816;2022-12-07T05:20:37;0.70;;;0.70;;
545;SDS011;259;53.304;9.816;2022-12-07T05:23:03;0.90;;;0.90;;
545;SDS011;259;53.304;9.816;2022-12-07T05:25:29;0.90;;;0.90;;
545;SDS011;259;53.304;9.816;2022-12-07T05:27:55;0.83;;;0.83;;
545;SDS011;259;53.304;9.816;2022-12-07T05:30:21;0.97;;;0.70;;
545;SDS011;259;53.304;9.816;2022-12-07T05:32:47;0.80;;;0.80;;
545;SDS011;259;53.304;9.816;2022-12-07T05:35:13;0.90;;;0.80;;
545;SDS011;259;53.304;9.816;2022-12-07T05:37:38;1.20;;;0.90;;
545;SDS011;259;53.304;9.816;2022-12-07T05:40:04;1.10;;;1.00;;
545;SDS011;259;53.304;9.816;2022-12-07T05:42:31;0.80;;;0.80;;
545;SDS011;259;53.304;9.816;2022-12-07T05:44:56;0.87;;;0.87;;
545;SDS011;259;53.304;9.816;2022-12-07T05:47:22;1.13;;;0.80;;
545;SDS011;259;53.304;9.816;2022-12-07T05:49:48;0.90;;;0.80;;
545;SDS011;259;53.304;9.816;2022-12-07T05:52:13;0.87;;;0.87;;
545;SDS011;259;53.304;9.816;2022-12-07T05:54:39;1.43;;;1.13;;
545;SDS011;259;53.304;9.816;2022-12-07T05:57:04;0.77;;;0.77;;
545;SDS011;259;53.304;9.816;2022-12-07T05:59:30;0.90;;;0.90;;
545;SDS011;259;53.304;9.816;2022-12-07T06:01:56;1.00;;;0.77;;
545;SDS011;259;53.304;9.816;2022-12-07T06:04:24;1.17;;;1.00;;
545;SDS011;259;53.304;9.816;2022-12-07T06:06:52;0.67;;;0.63;;
545;SDS011;259;53.304;9.816;2022-12-07T06:09:18;0.80;;;0.70;;
545;SDS011;259;53.304;9.816;2022-12-07T06:11:44;0.97;;;0.83;;
545;SDS011;259;53.304;9.816;2022-12-07T06:14:28;1.20;;;0.87;;
545;SDS011;259;53.304;9.816;2022-12-07T06:16:54;0.80;;;0.80;;
545;SDS011;259;53.304;9.816;2022-12-07T06:19:20;0.87;;;0.87;;
545;SDS011;259;53.304;9.816;2022-12-07T06:21:45;1.00;;;0.93;;
545;SDS011;259;53.304;9.816;2022-12-07T06:24:11;0.80;;;0.70;;
545;SDS011;259;53.304;9.816;2022-12-07T06:26:38;0.80;;;0.77;;
545;SDS011;259;53.304;9.816;2022-12-07T06:29:04;0.60;;;0.60;;
545;SDS011;259;53.304;9.816;2022-12-07T06:31:29;0.90;;;0.90;;
545;SDS011;259;53.304;9.816;2022-12-07T06:33:59;0.87;;;0.80;;
545;SDS011;259;53.304;9.816;2022-12-07T06:36:35;0.70;;;0.70;;
545;SDS011;259;53.304;9.816;2022-12-07T06:39:01;0.80;;;0.80;;
545;SDS011;259;53.304;9.816;2022-12-07T06:41:26;1.10;;;0.97;;
545;SDS011;259;53.304;9.816;2022-12-07T06:43:52;0.90;;;0.90;;
545;SDS011;259;53.304;9.816;2022-12-07T06:46:17;0.73;;;0.73;;
545;SDS011;259;53.304;9.816;2022-12-07T06:48:43;0.80;;;0.80;;
545;SDS011;259;53.304;9.816;2022-12-07T06:51:09;0.80;;;0.80;;
545;SDS011;259;53.304;9.816;2022-12-07T06:53:35;1.00;;;0.70;;
545;SDS011;259;53.304;9.816;2022-12-07T06:56:01;0.80;;;0.80;;
545;SDS011;259;53.304;9.816;2022-12-07T06:58:27;0.80;;;0.73;;
545;SDS011;259;53.304;9.816;2022-12-07T07:00:53;0.70;;;0.70;;
545;SDS011;259;53.304;9.816;2022-12-07T07:03:18;0.70;;;0.70;;
545;SDS011;259;53.304;9.816;2022-12-07T07:05:44;0.70;;;0.70;;
545;SDS011;259;53.304;9.816;2022-12-07T07:08:10;1.60;;;0.90;;
545;SDS011;259;53.304;9.816;2022-12-07T07:10:36;0.70;;;0.60;;
545;SDS011;259;53.304;9.816;2022-12-07T07:13:02;0.80;;;0.70;;
545;SDS011;259;53.304;9.816;2022-12-07T07:15:28;0.70;;;0.70;;
545;SDS011;259;53.304;9.816;2022-12-07T07:17:54;0.70;;;0.70;;
545;SDS011;259;53.304;9.816;2022-12-07T07:20:20;1.10;;;1.00;;
545;SDS011;259;53.304;9.816;2022-12-07T07:22:45;0.80;;;0.80;;
545;SDS011;259;53.304;9.816;2022-12-07T07:25:11;0.70;;;0.70;;
545;SDS011;259;53.304;9.816;2022-12-07T07:27:37;0.70;;;0.70;;
545;SDS011;259;53.304;9.816;2022-12-07T07:30:03;0.83;;;0.60;;
545;SDS011;259;53.304;9.816;2022-12-07T07:32:29;0.60;;;0.50;;
545;SDS011;259;53.304;9.816;2022-12-07T07:34:54;0.83;;;0.83;;
545;SDS011;259;53.304;9.816;2022-12-07T07:37:20;0.80;;;0.60;;
545;SDS011;259;53.304;9.816;2022-12-07T07:39:45;0.83;;;0.83;;
545;SDS011;259;53.304;9.816;2022-12-07T07:42:11;0.73;;;0.73;;
545;SDS011;259;53.304;9.816;2022-12-07T07:44:37;0.63;;;0.50;;
545;SDS011;259;53.304;9.816;2022-12-07T07:47:02;0.60;;;0.50;;
545;SDS011;259;53.304;9.816;2022-12-07T07:49:28;0.70;;;0.60;;
545;SDS011;259;53.304;9.816;2022-12-07T07:51:54;1.00;;;0.90;;
545;SDS011;259;53.304;9.816;2022-12-07T07:54:19;0.90;;;0.70;;
545;SDS011;259;53.304;9.816;2022-12-07T07:56:45;0.93;;;0.83;;
545;SDS011;259;53.304;9.816;2022-12-07T07:59:10;0.77;;;0.77;;
545;SDS011;259;53.304;9.816;2022-12-07T08:01:36;0.60;;;0.50;;
545;SDS011;259;53.304;9.816;2022-12-07T08:04:01;0.87;;;0.70;;
545;SDS011;259;53.304;9.816;2022-12-07T08:06:27;0.80;;;0.70;;
545;SDS011;259;53.304;9.816;2022-12-07T08:08:53;0.90;;;0.70;;
545;SDS011;259;53.304;9.816;2022-12-07T08:11:19;1.27;;;0.80;;
545;SDS011;259;53.304;9.816;2022-12-07T08:13:45;0.90;;;0.70;;
545;SDS011;259;53.304;9.816;2022-12-07T08:16:13;1.30;;;0.67;;
545;SDS011;259;53.304;9.816;2022-12-07T08:18:40;0.70;;;0.50;;
545;SDS011;259;53.304;9.816;2022-12-07T08:21:07;0.77;;;0.60;;
545;SDS011;259;53.304;9.816;2022-12-07T08:23:38;0.60;;;0.60;;
545;SDS011;259;53.304;9.816;2022-12-07T08:26:05;0.60;;;0.60;;
545;SDS011;259;53.304;9.816;2022-12-07T08:28:33;0.67;;;0.60;;
545;SDS011;259;53.304;9.816;2022-12-07T08:30:59;0.83;;;0.63;;
545;SDS011;259;53.304;9.816;2022-12-07T08:33:28;0.77;;;0.73;;
545;SDS011;259;53.304;9.816;2022-12-07T08:35:54;0.80;;;0.70;;
545;SDS011;259;53.304;9.816;2022-12-07T08:38:19;0.70;;;0.50;;
545;SDS011;259;53.304;9.816;2022-12-07T08:40:52;0.70;;;0.70;;
545;SDS011;259;53.304;9.816;2022-12-07T08:43:19;0.87;;;0.60;;
545;SDS011;259;53.304;9.816;2022-12-07T08:45:45;1.10;;;0.70;;
545;SDS011;259;53.304;9.816;2022-12-07T08:48:12;0.80;;;0.50;;
545;SDS011;259;53.304;9.816;2022-12-07T08:50:39;0.70;;;0.60;;
545;SDS011;259;53.304;9.816;2022-12-07T08:53:05;0.93;;;0.60;;
545;SDS011;259;53.304;9.816;2022-12-07T08:55:32;1.17;;;0.60;;
545;SDS011;259;53.304;9.816;2022-12-07T08:57:59;0.60;;;0.53;;
545;SDS011;259;53.304;9.816;2022-12-07T09:00:25;0.93;;;0.70;;
545;SDS011;259;53.304;9.816;2022-12-07T09:02:51;3.43;;;0.90;;
545;SDS011;259;53.304;9.816;2022-12-07T09:05:18;3.80;;;1.43;;
545;SDS011;259;53.304;9.816;2022-12-07T09:07:44;5.20;;;1.50;;
545;SDS011;259;53.304;9.816;2022-12-07T09:10:14;10.30;;;2.30;;
545;SDS011;259;53.304;9.816;2022-12-07T09:12:39;11.43;;;2.53;;
545;SDS011;259;53.304;9.816;2022-12-07T09:15:05;5.80;;;1.80;;
545;SDS011;259;53.304;9.816;2022-12-07T09:17:33;9.30;;;2.13;;
545;SDS011;259;53.304;9.816;2022-12-07T09:20:00;6.47;;;2.00;;
545;SDS011;259;53.304;9.816;2022-12-07T09:22:28;7.97;;;1.40;;
545;SDS011;259;53.304;9.816;2022-12-07T09:24:55;8.27;;;1.60;;
545;SDS011;259;53.304;9.816;2022-12-07T09:27:21;8.57;;;1.80;;
545;SDS011;259;53.304;9.816;2022-12-07T09:29:46;7.57;;;1.83;;
545;SDS011;259;53.304;9.816;2022-12-07T09:32:12;17.63;;;4.60;;
545;SDS011;259;53.304;9.816;2022-12-07T09:34:37;36.33;;;8.97;;
545;SDS011;259;53.304;9.816;2022-12-07T09:37:03;23.37;;;5.63;;
545;SDS011;259;53.304;9.816;2022-12-07T09:39:29;23.97;;;7.07;;
545;SDS011;259;53.304;9.816;2022-12-07T09:41:56;29.17;;;6.63;;
545;SDS011;259;53.304;9.816;2022-12-07T09:44:23;17.90;;;4.50;;
545;SDS011;259;53.304;9.816;2022-12-07T09:46:50;15.03;;;3.93;;
545;SDS011;259;53.304;9.816;2022-12-07T09:49:18;14.00;;;4.43;;
545;SDS011;259;53.304;9.816;2022-12-07T09:51:45;13.20;;;3.80;;
545;SDS011;259;53.304;9.816;2022-12-07T09:54:16;12.63;;;2.80;;
545;SDS011;259;53.304;9.816;2022-12-07T09:56:42;13.10;;;3.67;;
545;SDS011;259;53.304;9.816;2022-12-07T09:59:12;9.70;;;3.53;;
545;SDS011;259;53.304;9.816;2022-12-07T10:01:43;13.10;;;2.83;;
545;SDS011;259;53.304;9.816;2022-12-07T10:04:12;13.17;;;3.13;;
545;SDS011;259;53.304;9.816;2022-12-07T10:06:41;9.47;;;2.90;;
545;SDS011;259;53.304;9.816;2022-12-07T10:09:11;13.60;;;3.07;;
545;SDS011;259;53.304;9.816;2022-12-07T10:14:27;11.73;;;2.40;;
545;SDS011;259;53.304;9.816;2022-12-07T10:16:54;7.87;;;2.57;;
545;SDS011;259;53.304;9.816;2022-12-07T10:19:23;7.40;;;2.00;;
545;SDS011;259;53.304;9.816;2022-12-07T10:24:36;11.70;;;2.57;;
545;SDS011;259;53.304;9.816;2022-12-07T10:27:09;9.73;;;2.63;;
545;SDS011;259;53.304;9.816;2022-12-07T10:29:54;7.70;;;2.60;;
545;SDS011;259;53.304;9.816;2022-12-07T10:34:45;5.10;;;1.80;;
545;SDS011;259;53.304;9.816;2022-12-07T10:44:43;5.50;;;2.33;;
545;SDS011;259;53.304;9.816;2022-12-07T10:52:59;4.20;;;1.60;;
545;SDS011;259;53.304;9.816;2022-12-07T10:58:52;5.10;;;2.17;;
545;SDS011;259;53.304;9.816;2022-12-07T11:01:45;6.50;;;2.23;;
545;SDS011;259;53.304;9.816;2022-12-07T11:04:33;4.33;;;1.70;;
545;SDS011;259;53.304;9.816;2022-12-07T11:13:01;6.23;;;1.87;;
545;SDS011;259;53.304;9.816;2022-12-07T11:18:25;2.43;;;1.20;;
545;SDS011;259;53.304;9.816;2022-12-07T11:34:24;3.30;;;1.53;;
545;SDS011;259;53.304;9.816;2022-12-07T11:37:00;2.70;;;1.07;;
545;SDS011;259;53.304;9.816;2022-12-07T11:44:53;1.70;;;1.10;;
545;SDS011;259;53.304;9.816;2022-12-07T11:47:27;4.13;;;1.40;;
545;SDS011;259;53.304;9.816;2022-12-07T11:50:24;2.37;;;1.10;;
545;SDS011;259;53.304;9.816;2022-12-07T12:03:40;2.80;;;1.00;;
545;SDS011;259;53.304;9.816;2022-12-07T12:06:19;2.03;;;0.70;;
545;SDS011;259;53.304;9.816;2022-12-07T12:14:11;3.90;;;2.07;;
545;SDS011;259;53.304;9.816;2022-12-07T12:19:45;1.83;;;1.10;;
545;SDS011;259;53.304;9.816;2022-12-07T12:22:33;3.00;;;0.93;;
545;SDS011;259;53.304;9.816;2022-12-07T12:25:06;1.60;;;1.23;;
545;SDS011;259;53.304;9.816;2022-12-07T12:27:46;1.60;;;0.83;;
545;SDS011;259;53.304;9.816;2022-12-07T12:30:24;2.47;;;1.30;;
545;SDS011;259;53.304;9.816;2022-12-07T12:32:54;1.60;;;1.20;;
545;SDS011;259;53.304;9.816;2022-12-07T12:36:16;1.13;;;0.73;;
545;SDS011;259;53.304;9.816;2022-12-07T12:44:00;1.77;;;0.80;;
545;SDS011;259;53.304;9.816;2022-12-07T12:51:44;1.90;;;0.80;;
545;SDS011;259;53.304;9.816;2022-12-07T12:59:34;3.77;;;1.07;;
545;SDS011;259;53.304;9.816;2022-12-07T13:04:53;2.20;;;1.00;;
545;SDS011;259;53.304;9.816;2022-12-07T13:12:56;1.87;;;0.80;;
545;SDS011;259;53.304;9.816;2022-12-07T13:15:31;1.73;;;0.97;;
545;SDS011;259;53.304;9.816;2022-12-07T13:21:40;0.97;;;0.60;;
545;SDS011;259;53.304;9.816;2022-12-07T13:23:54;1.37;;;1.00;;
545;SDS011;259;53.304;9.816;2022-12-07T13:26:26;1.00;;;0.97;;
545;SDS011;259;53.304;9.816;2022-12-07T13:29:14;1.27;;;0.60;;
545;SDS011;259;53.304;9.816;2022-12-07T13:31:43;1.33;;;1.17;;
545;SDS011;259;53.304;9.816;2022-12-07T13:34:30;1.90;;;1.00;;
545;SDS011;259;53.304;9.816;2022-12-07T13:36:59;2.20;;;0.70;;
545;SDS011;259;53.304;9.816;2022-12-07T13:39:27;0.60;;;0.60;;
545;SDS011;259;53.304;9.816;2022-12-07T13:41:54;0.70;;;0.50;;
545;SDS011;259;53.304;9.816;2022-12-07T13:44:22;0.93;;;0.63;;
545;SDS011;259;53.304;9.816;2022-12-07T13:46:53;1.33;;;0.60;;
545;SDS011;259;53.304;9.816;2022-12-07T13:49:47;1.77;;;0.80;;
545;SDS011;259;53.304;9.816;2022-12-07T13:54:49;1.20;;;0.70;;
545;SDS011;259;53.304;9.816;2022-12-07T13:57:21;0.70;;;0.60;;
545;SDS011;259;53.304;9.816;2022-12-07T13:59:48;1.00;;;0.80;;
545;SDS011;259;53.304;9.816;2022-12-07T14:02:18;1.30;;;1.20;;
545;SDS011;259;53.304;9.816;2022-12-07T14:04:50;1.40;;;0.60;;
545;SDS011;259;53.304;9.816;2022-12-07T14:07:24;1.20;;;0.90;;
545;SDS011;259;53.304;9.816;2022-12-07T14:09:58;1.10;;;0.80;;
545;SDS011;259;53.304;9.816;2022-12-07T14:12:25;1.00;;;0.67;;
545;SDS011;259;53.304;9.816;2022-12-07T14:14:52;1.17;;;0.70;;
545;SDS011;259;53.304;9.816;2022-12-07T14:17:20;1.03;;;0.87;;
545;SDS011;259;53.304;9.816;2022-12-07T14:22:24;1.10;;;0.60;;
545;SDS011;259;53.304;9.816;2022-12-07T14:25:02;3.00;;;1.07;;
545;SDS011;259;53.304;9.816;2022-12-07T14:28:09;1.07;;;0.70;;
545;SDS011;259;53.304;9.816;2022-12-07T14:30:35;1.37;;;0.87;;
545;SDS011;259;53.304;9.816;2022-12-07T14:33:01;1.40;;;0.70;;
545;SDS011;259;53.304;9.816;2022-12-07T14:35:29;0.90;;;0.77;;
545;SDS011;259;53.304;9.816;2022-12-07T14:37:55;1.47;;;1.13;;
545;SDS011;259;53.304;9.816;2022-12-07T14:40:22;1.57;;;0.80;;
545;SDS011;259;53.304;9.816;2022-12-07T14:42:59;0.70;;;0.60;;
545;SDS011;259;53.304;9.816;2022-12-07T14:45:26;0.83;;;0.50;;
545;SDS011;259;53.304;9.816;2022-12-07T14:47:52;2.53;;;0.80;;
545;SDS011;259;53.304;9.816;2022-12-07T14:50:18;1.10;;;0.83;;
545;SDS011;259;53.304;9.816;2022-12-07T14:52:49;1.33;;;0.70;;
545;SDS011;259;53.304;9.816;2022-12-07T14:55:26;2.03;;;0.70;;
545;SDS011;259;53.304;9.816;2022-12-07T14:57:53;2.50;;;0.70;;
545;SDS011;259;53.304;9.816;2022-12-07T15:00:20;2.10;;;0.93;;
545;SDS011;259;53.304;9.816;2022-12-07T15:02:48;1.50;;;1.23;;
545;SDS011;259;53.304;9.816;2022-12-07T15:05:14;0.83;;;0.80;;
545;SDS011;259;53.304;9.816;2022-12-07T15:07:40;1.33;;;0.80;;
545;SDS011;259;53.304;9.816;2022-12-07T15:10:08;1.23;;;0.93;;
545;SDS011;259;53.304;9.816;2022-12-07T15:12:41;1.33;;;0.80;;
545;SDS011;259;53.304;9.816;2022-12-07T15:15:07;0.67;;;0.57;;
545;SDS011;259;53.304;9.816;2022-12-07T15:17:33;0.80;;;0.70;;
545;SDS011;259;53.304;9.816;2022-12-07T15:19:58;0.93;;;0.83;;
545;SDS011;259;53.304;9.816;2022-12-07T15:22:24;1.23;;;0.80;;
545;SDS011;259;53.304;9.816;2022-12-07T15:24:49;0.80;;;0.60;;
545;SDS011;259;53.304;9.816;2022-12-07T15:27:15;1.07;;;0.70;;
545;SDS011;259;53.304;9.816;2022-12-07T15:29:40;1.10;;;0.50;;
545;SDS011;259;53.304;9.816;2022-12-07T15:32:06;2.10;;;1.00;;
545;SDS011;259;53.304;9.816;2022-12-07T15:34:31;1.00;;;0.60;;
545;SDS011;259;53.304;9.816;2022-12-07T15:36:57;1.10;;;0.57;;
545;SDS011;259;53.304;9.816;2022-12-07T15:39:22;0.70;;;0.70;;
545;SDS011;259;53.304;9.816;2022-12-07T15:41:48;0.70;;;0.50;;
545;SDS011;259;53.304;9.816;2022-12-07T15:44:14;1.43;;;0.77;;
545;SDS011;259;53.304;9.816;2022-12-07T15:46:58;0.80;;;0.50;;
545;SDS011;259;53.304;9.816;2022-12-07T15:49:24;0.80;;;0.60;;
545;SDS011;259;53.304;9.816;2022-12-07T15:51:50;1.03;;;0.77;;
545;SDS011;259;53.304;9.816;2022-12-07T15:54:24;0.97;;;0.73;;
545;SDS011;259;53.304;9.816;2022-12-07T15:56:51;1.77;;;0.77;;
545;SDS011;259;53.304;9.816;2022-12-07T15:59:17;1.00;;;0.57;;
545;SDS011;259;53.304;9.816;2022-12-07T16:01:42;0.90;;;0.70;;
545;SDS011;259;53.304;9.816;2022-12-07T16:04:08;0.97;;;0.67;;
545;SDS011;259;53.304;9.816;2022-12-07T16:06:34;1.10;;;0.70;;
545;SDS011;259;53.304;9.816;2022-12-07T16:08:59;0.70;;;0.67;;
545;SDS011;259;53.304;9.816;2022-12-07T16:11:25;0.80;;;0.60;;
545;SDS011;259;53.304;9.816;2022-12-07T16:13:50;0.80;;;0.80;;
545;SDS011;259;53.304;9.816;2022-12-07T16:16:17;1.27;;;0.80;;
545;SDS011;259;53.304;9.816;2022-12-07T16:18:44;0.70;;;0.60;;
545;SDS011;259;53.304;9.816;2022-12-07T16:21:11;0.60;;;0.50;;
545;SDS011;259;53.304;9.816;2022-12-07T16:23:37;0.80;;;0.60;;
545;SDS011;259;53.304;9.816;2022-12-07T16:26:04;0.83;;;0.60;;
545;SDS011;259;53.304;9.816;2022-12-07T16:28:31;1.30;;;0.80;;
545;SDS011;259;53.304;9.816;2022-12-07T16:31:00;0.80;;;0.70;;
545;SDS011;259;53.304;9.816;2022-12-07T16:33:27;1.23;;;0.80;;
545;SDS011;259;53.304;9.816;2022-12-07T16:35:52;1.07;;;0.70;;
545;SDS011;259;53.304;9.816;2022-12-07T16:38:18;0.70;;;0.40;;
545;SDS011;259;53.304;9.816;2022-12-07T16:40:43;1.27;;;1.17;;
545;SDS011;259;53.304;9.816;2022-12-07T16:43:10;1.00;;;0.80;;
545;SDS011;259;53.304;9.816;2022-12-07T16:45:38;1.10;;;0.80;;
545;SDS011;259;53.304;9.816;2022-12-07T16:48:03;0.87;;;0.60;;
545;SDS011;259;53.304;9.816;2022-12-07T16:50:29;0.70;;;0.50;;
545;SDS011;259;53.304;9.816;2022-12-07T16:52:55;1.63;;;0.90;;
545;SDS011;259;53.304;9.816;2022-12-07T16:55:20;0.90;;;0.80;;
545;SDS011;259;53.304;9.816;2022-12-07T16:57:46;0.90;;;0.63;;
545;SDS011;259;53.304;9.816;2022-12-07T17:00:11;0.70;;;0.67;;
545;SDS011;259;53.304;9.816;2022-12-07T17:02:37;2.90;;;0.87;;
545;SDS011;259;53.304;9.816;2022-12-07T17:05:03;0.60;;;0.60;;
545;SDS011;259;53.304;9.816;2022-12-07T17:07:28;0.70;;;0.60;;
545;SDS011;259;53.304;9.816;2022-12-07T17:09:54;0.97;;;0.87;;
545;SDS011;259;53.304;9.816;2022-12-07T17:12:19;1.00;;;0.80;;
545;SDS011;259;53.304;9.816;2022-12-07T17:14:45;0.90;;;0.70;;
545;SDS011;259;53.304;9.816;2022-12-07T17:17:29;0.70;;;0.70;;
545;SDS011;259;53.304;9.816;2022-12-07T17:19:55;1.67;;;0.80;;
545;SDS011;259;53.304;9.816;2022-12-07T17:22:20;0.93;;;0.90;;
545;SDS011;259;53.304;9.816;2022-12-07T17:24:46;0.90;;;0.70;;
545;SDS011;259;53.304;9.816;2022-12-07T17:27:11;1.47;;;0.70;;
545;SDS011;259;53.304;9.816;2022-12-07T17:29:37;1.00;;;0.70;;
545;SDS011;259;53.304;9.816;2022-12-07T17:32:03;1.53;;;0.70;;
545;SDS011;259;53.304;9.816;2022-12-07T17:34:28;0.87;;;0.70;;
545;SDS011;259;53.304;9.816;2022-12-07T17:36:54;0.90;;;0.70;;
545;SDS011;259;53.304;9.816;2022-12-07T17:39:19;1.00;;;0.90;;
545;SDS011;259;53.304;9.816;2022-12-07T17:41:45;1.27;;;0.93;;
545;SDS011;259;53.304;9.816;2022-12-07T17:44:29;0.93;;;0.87;;
545;SDS011;259;53.304;9.816;2022-12-07T17:46:55;1.33;;;1.00;;
545;SDS011;259;53.304;9.816;2022-12-07T17:49:26;0.97;;;0.90;;
545;SDS011;259;53.304;9.816;2022-12-07T17:51:52;1.43;;;0.70;;
545;SDS011;259;53.304;9.816;2022-12-07T17:54:37;3.47;;;0.90;;
545;SDS011;259;53.304;9.816;2022-12-07T17:57:02;2.17;;;1.10;;
545;SDS011;259;53.304;9.816;2022-12-07T17:59:28;3.77;;;0.90;;
545;SDS011;259;53.304;9.816;2022-12-07T18:01:54;5.30;;;1.40;;
545;SDS011;259;53.304;9.816;2022-12-07T18:04:19;1.93;;;0.93;;
545;SDS011;259;53.304;9.816;2022-12-07T18:06:45;3.43;;;1.00;;
545;SDS011;259;53.304;9.816;2022-12-07T18:09:10;6.33;;;1.17;;
545;SDS011;259;53.304;9.816;2022-12-07T18:11:36;3.50;;;1.60;;
545;SDS011;259;53.304;9.816;2022-12-07T18:14:04;4.13;;;1.10;;
545;SDS011;259;53.304;9.816;2022-12-07T18:16:30;1.57;;;0.80;;
545;SDS011;259;53.304;9.816;2022-12-07T18:18:59;3.40;;;1.07;;